Time,TemperatureF,DewpointF,PressureIn,WindDirection,WindDirectionDegrees,WindSpeedMPH,WindSpeedGustMPH,Humidity,HourlyPrecipIn,Conditions,Clouds,dailyrainin,SoftwareType,DateUTC
2017-12-17 00:00:00,37.2,30.4,30.32,SSE,156,0.0,0.0,76,0.00,,,0.00,meteohub,2017-12-17 05:00:00,
2017-12-17 00:01:00,37.2,30.4,30.32,SE,143,0.0,0.0,76,0.00,,,0.00,meteohub,2017-12-17 05:01:00,
2017-12-17 00:06:00,37.2,30.4,30.31,SSE,153,0.0,0.0,76,0.00,,,0.00,meteohub,2017-12-17 05:06:00,
2017-12-17 00:07:00,37.2,30.4,30.31,SSE,150,0.0,0.0,76,0.00,,,0.00,meteohub,2017-12-17 05:07:00,
2017-12-17 00:10:00,37.2,30.4,30.31,SSE,150,0.0,0.0,76,0.00,,,0.00,meteohub,2017-12-17 05:10:00,
2017-12-17 00:15:00,37.0,30.2,30.31,SSE,148,0.0,0.0,76,0.00,,,0.00,meteohub,2017-12-17 05:15:00,
2017-12-17 00:16:00,37.0,30.6,30.31,SE,140,0.0,0.0,77,0.00,,,0.00,meteohub,2017-12-17 05:16:00,
2017-12-17 00:19:00,36.9,30.4,30.31,SSE,162,0.0,0.0,77,0.00,,,0.00,meteohub,2017-12-17 05:19:00,
2017-12-17 00:24:00,36.7,30.2,30.31,SSE,153,0.0,0.0,77,0.00,,,0.00,meteohub,2017-12-17 05:24:00,
2017-12-17 00:25:00,36.7,30.2,30.31,SSE,155,0.0,0.0,77,0.00,,,0.00,meteohub,2017-12-17 05:25:00,
2017-12-17 00:30:00,36.5,30.0,30.31,SSE,166,0.0,0.0,77,0.00,,,0.00,meteohub,2017-12-17 05:30:00,
2017-12-17 00:35:00,36.1,30.0,30.31,SSE,165,0.0,0.0,78,0.00,,,0.00,meteohub,2017-12-17 05:35:00,
2017-12-17 00:36:00,36.1,30.0,30.31,SSE,162,0.0,0.0,78,0.00,,,0.00,meteohub,2017-12-17 05:36:00,
2017-12-17 00:37:00,36.1,30.0,30.31,SE,143,0.0,0.0,78,0.00,,,0.00,meteohub,2017-12-17 05:37:00,
2017-12-17 00:42:00,36.1,30.0,30.31,SE,143,0.0,0.0,78,0.00,,,0.00,meteohub,2017-12-17 05:42:00,
2017-12-17 00:44:00,36.1,30.0,30.31,SSE,160,0.0,0.0,78,0.00,,,0.00,meteohub,2017-12-17 05:44:00,
2017-12-17 00:47:00,36.1,30.2,30.31,SSE,159,0.0,0.0,79,0.00,,,0.00,meteohub,2017-12-17 05:47:00,
2017-12-17 00:51:00,36.1,30.2,30.32,SSW,200,0.0,0.0,79,0.00,,,0.00,meteohub,2017-12-17 05:51:00,
2017-12-17 00:56:00,36.3,30.4,30.31,SE,141,0.0,0.0,79,0.00,,,0.00,meteohub,2017-12-17 05:56:00,
2017-12-17 00:58:00,36.3,30.4,30.31,SSE,156,0.0,0.0,79,0.00,,,0.00,meteohub,2017-12-17 05:58:00,
2017-12-17 01:03:00,36.5,30.6,30.31,SSE,155,0.0,0.0,79,0.00,,,0.00,meteohub,2017-12-17 06:03:00,
2017-12-17 01:08:00,36.7,30.7,30.31,South,188,0.0,0.0,79,0.00,,,0.00,meteohub,2017-12-17 06:08:00,
2017-12-17 01:10:00,36.9,30.9,30.31,SSE,162,0.0,0.0,79,0.00,,,0.00,meteohub,2017-12-17 06:10:00,
2017-12-17 01:15:00,37.0,31.1,30.31,SSE,160,0.0,0.0,79,0.00,,,0.00,meteohub,2017-12-17 06:15:00,
2017-12-17 01:19:00,37.2,31.3,30.31,SSE,154,0.0,0.0,79,0.00,,,0.00,meteohub,2017-12-17 06:19:00,
2017-12-17 01:24:00,37.4,31.1,30.31,South,183,0.0,0.0,78,0.00,,,0.00,meteohub,2017-12-17 06:24:00,
2017-12-17 01:26:00,37.4,31.1,30.31,South,174,0.0,0.0,78,0.00,,,0.00,meteohub,2017-12-17 06:26:00,
2017-12-17 01:31:00,37.6,31.3,30.30,South,181,0.0,0.0,78,0.00,,,0.00,meteohub,2017-12-17 06:31:00,
2017-12-17 01:33:00,37.6,31.3,30.31,South,191,0.0,0.0,78,0.00,,,0.00,meteohub,2017-12-17 06:33:00,
2017-12-17 01:38:00,37.6,31.3,30.30,South,172,0.0,0.0,78,0.00,,,0.00,meteohub,2017-12-17 06:38:00,
2017-12-17 01:43:00,37.6,31.3,30.30,South,186,0.0,0.0,78,0.00,,,0.00,meteohub,2017-12-17 06:43:00,
2017-12-17 01:44:00,37.6,31.3,30.30,SE,138,0.0,0.0,78,0.00,,,0.00,meteohub,2017-12-17 06:44:00,
2017-12-17 01:49:00,37.4,31.1,30.30,SSE,154,0.0,0.0,78,0.00,,,0.00,meteohub,2017-12-17 06:49:00,
2017-12-17 01:51:00,37.4,31.1,30.30,South,179,0.0,0.0,78,0.00,,,0.00,meteohub,2017-12-17 06:51:00,
2017-12-17 01:56:00,37.2,30.9,30.30,SSE,150,0.0,0.0,78,0.00,,,0.00,meteohub,2017-12-17 06:56:00,
2017-12-17 02:01:00,37.0,30.7,30.30,South,181,0.0,0.0,78,0.00,,,0.00,meteohub,2017-12-17 07:01:00,
2017-12-17 02:06:00,36.9,30.6,30.30,SSE,153,0.0,0.0,78,0.00,,,0.00,meteohub,2017-12-17 07:06:00,
2017-12-17 02:08:00,36.7,30.7,30.30,SSE,151,0.0,0.0,79,0.00,,,0.00,meteohub,2017-12-17 07:08:00,
2017-12-17 02:13:00,36.7,30.7,30.30,SSW,194,0.0,0.0,79,0.00,,,0.00,meteohub,2017-12-17 07:13:00,
2017-12-17 02:18:00,36.5,30.6,30.30,SSE,153,0.0,0.0,79,0.00,,,0.00,meteohub,2017-12-17 07:18:00,
2017-12-17 02:19:00,36.5,30.6,30.30,SSE,149,0.0,0.0,79,0.00,,,0.00,meteohub,2017-12-17 07:19:00,
2017-12-17 02:24:00,36.3,30.4,30.30,South,186,0.0,0.0,79,0.00,,,0.00,meteohub,2017-12-17 07:24:00,
2017-12-17 02:25:00,36.3,30.4,30.30,South,178,0.0,0.0,79,0.00,,,0.00,meteohub,2017-12-17 07:25:00,
2017-12-17 02:26:00,36.3,30.7,30.30,South,176,0.0,0.0,80,0.00,,,0.00,meteohub,2017-12-17 07:26:00,
2017-12-17 02:31:00,36.3,30.7,30.29,SSE,163,0.0,0.0,80,0.00,,,0.00,meteohub,2017-12-17 07:31:00,
2017-12-17 02:32:00,36.1,30.6,30.29,SE,141,0.0,0.0,80,0.00,,,0.00,meteohub,2017-12-17 07:32:00,
2017-12-17 02:37:00,36.1,30.6,30.29,SE,134,0.0,0.0,80,0.00,,,0.00,meteohub,2017-12-17 07:37:00,
2017-12-17 02:40:00,36.1,30.6,30.29,SSE,160,0.0,0.0,80,0.00,,,0.00,meteohub,2017-12-17 07:40:00,
2017-12-17 02:45:00,36.0,30.4,30.29,SSE,152,0.0,0.0,80,0.00,,,0.00,meteohub,2017-12-17 07:45:00,
2017-12-17 02:50:00,36.1,30.6,30.30,SSE,166,0.0,0.0,80,0.00,,,0.00,meteohub,2017-12-17 07:50:00,
2017-12-17 02:51:00,36.1,30.6,30.30,SSW,201,0.0,0.0,80,0.00,,,0.00,meteohub,2017-12-17 07:51:00,
2017-12-17 02:56:00,36.3,31.1,30.30,South,174,0.0,0.0,81,0.00,,,0.00,meteohub,2017-12-17 07:56:00,
2017-12-17 02:59:00,36.5,30.9,30.30,SE,143,0.0,0.0,80,0.00,,,0.00,meteohub,2017-12-17 07:59:00,
2017-12-17 03:03:00,36.7,31.1,30.30,SSE,162,0.0,0.0,80,0.00,,,0.00,meteohub,2017-12-17 08:03:00,
2017-12-17 03:08:00,36.9,31.3,30.30,South,186,0.0,0.0,80,0.00,,,0.00,meteohub,2017-12-17 08:08:00,
2017-12-17 03:09:00,36.9,31.3,30.30,SW,232,0.0,0.0,80,0.00,,,0.00,meteohub,2017-12-17 08:09:00,
2017-12-17 03:14:00,37.0,31.5,30.30,South,173,0.0,0.0,80,0.00,,,0.00,meteohub,2017-12-17 08:14:00,
2017-12-17 03:15:00,37.0,31.5,30.30,SSE,168,0.0,0.0,80,0.00,,,0.00,meteohub,2017-12-17 08:15:00,
2017-12-17 03:16:00,37.0,31.5,30.30,South,188,0.0,0.0,80,0.00,,,0.00,meteohub,2017-12-17 08:16:00,
2017-12-17 03:17:00,37.2,31.6,30.30,South,181,0.0,0.0,80,0.00,,,0.00,meteohub,2017-12-17 08:17:00,
2017-12-17 03:21:00,37.2,31.3,30.29,SSE,150,0.0,0.0,79,0.00,,,0.00,meteohub,2017-12-17 08:21:00,
2017-12-17 03:26:00,37.6,31.6,30.30,South,169,0.0,0.0,79,0.00,,,0.00,meteohub,2017-12-17 08:26:00,
2017-12-17 03:31:00,37.6,31.6,30.30,SSW,207,0.0,0.0,79,0.00,,,0.00,meteohub,2017-12-17 08:31:00,
2017-12-17 03:32:00,37.6,31.6,30.30,SSW,198,0.0,0.0,79,0.00,,,0.00,meteohub,2017-12-17 08:32:00,
2017-12-17 03:37:00,37.8,31.8,30.31,SSW,205,0.0,0.0,79,0.00,,,0.00,meteohub,2017-12-17 08:37:00,
2017-12-17 03:39:00,37.9,31.6,30.31,SSE,165,0.0,0.0,78,0.00,,,0.00,meteohub,2017-12-17 08:39:00,
2017-12-17 03:44:00,38.1,31.8,30.31,WSW,246,0.0,0.0,78,0.00,,,0.00,meteohub,2017-12-17 08:44:00,
2017-12-17 03:47:00,38.1,31.8,30.31,SSW,197,0.0,0.0,78,0.00,,,0.00,meteohub,2017-12-17 08:47:00,
2017-12-17 03:51:00,38.3,32.0,30.31,SW,216,0.0,0.0,78,0.00,,,0.00,meteohub,2017-12-17 08:51:00,
2017-12-17 03:52:00,38.3,32.0,30.31,South,191,0.0,0.0,78,0.00,,,0.00,meteohub,2017-12-17 08:52:00,
2017-12-17 03:57:00,38.3,31.6,30.31,SSE,162,0.0,0.0,77,0.00,,,0.00,meteohub,2017-12-17 08:57:00,
2017-12-17 03:58:00,38.5,31.8,30.31,South,170,0.0,0.0,77,0.00,,,0.00,meteohub,2017-12-17 08:58:00,
2017-12-17 04:03:00,38.3,31.6,30.31,SSW,211,0.0,0.0,77,0.00,,,0.00,meteohub,2017-12-17 09:03:00,
2017-12-17 04:05:00,38.5,31.8,30.31,SSW,212,0.0,0.0,77,0.00,,,0.00,meteohub,2017-12-17 09:05:00,
2017-12-17 04:06:00,38.5,31.8,30.31,SSE,163,0.0,0.0,77,0.00,,,0.00,meteohub,2017-12-17 09:06:00,
2017-12-17 04:10:00,38.3,31.6,30.31,SW,221,0.0,0.0,77,0.00,,,0.00,meteohub,2017-12-17 09:10:00,
2017-12-17 04:13:00,38.3,31.6,30.31,SSW,197,0.0,0.0,77,0.00,,,0.00,meteohub,2017-12-17 09:13:00,
2017-12-17 04:16:00,38.3,31.6,30.31,SW,214,0.0,0.0,77,0.00,,,0.00,meteohub,2017-12-17 09:16:00,
2017-12-17 04:21:00,38.1,31.6,30.31,South,179,0.0,0.0,77,0.00,,,0.00,meteohub,2017-12-17 09:21:00,
2017-12-17 04:25:00,38.1,31.6,30.30,South,174,0.0,0.0,77,0.00,,,0.00,meteohub,2017-12-17 09:25:00,
2017-12-17 04:26:00,38.1,31.6,30.30,South,187,0.0,0.0,77,0.00,,,0.00,meteohub,2017-12-17 09:26:00,
2017-12-17 04:32:00,38.1,31.6,30.30,SSW,212,0.0,0.0,77,0.00,,,0.00,meteohub,2017-12-17 09:32:00,
2017-12-17 04:37:00,38.1,31.6,30.30,SSE,165,0.0,0.0,77,0.00,,,0.00,meteohub,2017-12-17 09:37:00,
2017-12-17 04:38:00,38.1,31.6,30.31,South,180,0.0,0.0,77,0.00,,,0.00,meteohub,2017-12-17 09:38:00,
2017-12-17 04:43:00,37.9,31.6,30.31,SSE,159,0.0,0.0,78,0.00,,,0.00,meteohub,2017-12-17 09:43:00,
2017-12-17 04:45:00,37.9,31.6,30.31,SSW,207,0.0,0.0,78,0.00,,,0.00,meteohub,2017-12-17 09:45:00,
2017-12-17 04:48:00,37.9,31.6,30.30,SSW,198,0.0,0.0,78,0.00,,,0.00,meteohub,2017-12-17 09:48:00,
2017-12-17 04:53:00,37.9,31.6,30.30,South,173,0.0,0.0,78,0.00,,,0.00,meteohub,2017-12-17 09:53:00,
2017-12-17 04:58:00,37.9,31.6,30.30,SSE,148,0.0,0.0,78,0.00,,,0.00,meteohub,2017-12-17 09:58:00,
2017-12-17 04:59:00,37.9,31.6,30.30,SSW,198,0.0,0.0,78,0.00,,,0.00,meteohub,2017-12-17 09:59:00,
2017-12-17 05:04:00,37.9,31.6,30.30,SW,214,0.0,0.0,78,0.00,,,0.00,meteohub,2017-12-17 10:04:00,
2017-12-17 05:09:00,37.9,31.6,30.30,SSW,210,0.0,0.0,78,0.00,,,0.00,meteohub,2017-12-17 10:09:00,
2017-12-17 05:14:00,37.8,31.5,30.30,SSE,166,0.0,0.0,78,0.00,,,0.00,meteohub,2017-12-17 10:14:00,
2017-12-17 05:15:00,37.9,31.6,30.30,SSE,158,0.0,0.0,78,0.00,,,0.00,meteohub,2017-12-17 10:15:00,
2017-12-17 05:20:00,37.8,31.5,30.30,SSE,156,0.0,0.0,78,0.00,,,0.00,meteohub,2017-12-17 10:20:00,
2017-12-17 05:21:00,37.8,31.5,30.30,SSE,148,0.0,0.0,78,0.00,,,0.00,meteohub,2017-12-17 10:21:00,
2017-12-17 05:26:00,37.9,31.6,30.30,South,179,0.0,0.0,78,0.00,,,0.00,meteohub,2017-12-17 10:26:00,
2017-12-17 05:27:00,37.8,31.5,30.30,SE,136,0.0,0.0,78,0.00,,,0.00,meteohub,2017-12-17 10:27:00,
2017-12-17 05:30:00,37.8,31.5,30.29,South,188,0.0,0.0,78,0.00,,,0.00,meteohub,2017-12-17 10:30:00,
2017-12-17 05:36:00,37.9,31.6,30.29,South,188,0.0,0.0,78,0.00,,,0.00,meteohub,2017-12-17 10:36:00,
2017-12-17 05:40:00,37.9,31.6,30.29,SSE,151,0.0,0.0,78,0.00,,,0.00,meteohub,2017-12-17 10:40:00,
2017-12-17 05:41:00,37.9,31.6,30.29,SSE,158,0.0,0.0,78,0.00,,,0.00,meteohub,2017-12-17 10:41:00,
2017-12-17 05:46:00,37.9,31.6,30.29,South,188,0.0,0.0,78,0.00,,,0.00,meteohub,2017-12-17 10:46:00,
2017-12-17 05:51:00,37.9,31.6,30.29,SSE,156,0.0,0.0,78,0.00,,,0.00,meteohub,2017-12-17 10:51:00,
2017-12-17 05:56:00,38.1,31.8,30.29,SSE,162,0.0,0.0,78,0.00,,,0.00,meteohub,2017-12-17 10:56:00,
2017-12-17 06:01:00,38.1,31.8,30.30,SE,136,0.0,0.0,78,0.00,,,0.00,meteohub,2017-12-17 11:01:00,
2017-12-17 06:04:00,38.1,31.8,30.30,SE,140,0.0,0.0,78,0.00,,,0.00,meteohub,2017-12-17 11:04:00,
2017-12-17 06:05:00,38.1,31.8,30.30,South,181,0.0,0.0,78,0.00,,,0.00,meteohub,2017-12-17 11:05:00,
2017-12-17 06:10:00,38.1,31.8,30.30,SSE,168,0.0,0.0,78,0.00,,,0.00,meteohub,2017-12-17 11:10:00,
2017-12-17 06:15:00,37.9,31.6,30.30,SSE,165,0.0,0.0,78,0.00,,,0.00,meteohub,2017-12-17 11:15:00,
2017-12-17 06:17:00,37.9,31.6,30.30,SSE,167,0.0,0.0,78,0.00,,,0.00,meteohub,2017-12-17 11:17:00,
2017-12-17 06:22:00,37.9,31.6,30.30,SE,124,0.0,0.0,78,0.00,,,0.00,meteohub,2017-12-17 11:22:00,
2017-12-17 06:27:00,37.8,31.5,30.30,South,188,0.0,0.0,78,0.00,,,0.00,meteohub,2017-12-17 11:27:00,
2017-12-17 06:29:00,37.8,31.5,30.30,SE,140,0.0,0.0,78,0.00,,,0.00,meteohub,2017-12-17 11:29:00,
2017-12-17 06:32:00,37.8,31.5,30.30,SE,138,0.0,0.0,78,0.00,,,0.00,meteohub,2017-12-17 11:32:00,
2017-12-17 06:34:00,37.8,31.5,30.30,SSE,148,0.0,0.0,78,0.00,,,0.00,meteohub,2017-12-17 11:34:00,
2017-12-17 06:39:00,37.8,31.8,30.30,SE,143,0.0,0.0,79,0.00,,,0.00,meteohub,2017-12-17 11:39:00,
2017-12-17 06:41:00,37.8,31.8,30.29,SSW,195,0.0,0.0,79,0.00,,,0.00,meteohub,2017-12-17 11:41:00,
2017-12-17 06:43:00,37.9,31.6,30.29,WSW,254,0.0,0.0,78,0.00,,,0.00,meteohub,2017-12-17 11:43:00,
2017-12-17 06:46:00,38.1,31.8,30.29,SSE,162,0.0,0.0,78,0.00,,,0.00,meteohub,2017-12-17 11:46:00,
2017-12-17 06:51:00,38.1,31.8,30.30,South,184,0.0,0.0,78,0.00,,,0.00,meteohub,2017-12-17 11:51:00,
2017-12-17 06:52:00,38.1,31.8,30.30,SSE,162,0.0,0.0,78,0.00,,,0.00,meteohub,2017-12-17 11:52:00,
2017-12-17 06:57:00,38.1,31.8,30.29,SSE,153,0.0,0.0,78,0.00,,,0.00,meteohub,2017-12-17 11:57:00,
2017-12-17 06:59:00,38.1,31.8,30.30,SSE,158,0.0,0.0,78,0.00,,,0.00,meteohub,2017-12-17 11:59:00,
2017-12-17 07:01:00,38.1,31.8,30.30,South,170,0.0,0.0,78,0.00,,,0.00,meteohub,2017-12-17 12:01:00,
2017-12-17 07:04:00,38.1,31.8,30.30,SSE,153,0.0,0.0,78,0.00,,,0.00,meteohub,2017-12-17 12:04:00,
2017-12-17 07:10:00,37.9,31.6,30.30,SE,141,0.0,0.0,78,0.00,,,0.00,meteohub,2017-12-17 12:10:00,
2017-12-17 07:12:00,37.9,31.6,30.30,SE,146,0.0,0.0,78,0.00,,,0.00,meteohub,2017-12-17 12:12:00,
2017-12-17 07:14:00,37.8,31.5,30.30,SSE,149,0.0,0.0,78,0.00,,,0.00,meteohub,2017-12-17 12:14:00,
2017-12-17 07:17:00,37.8,31.5,30.31,SSE,165,0.0,0.0,78,0.00,,,0.00,meteohub,2017-12-17 12:17:00,
2017-12-17 07:22:00,37.6,31.6,30.31,SSE,158,0.0,0.0,79,0.00,,,0.00,meteohub,2017-12-17 12:22:00,
2017-12-17 07:27:00,37.6,31.6,30.31,South,174,0.0,0.0,79,0.00,,,0.00,meteohub,2017-12-17 12:27:00,
2017-12-17 07:32:00,37.6,31.6,30.31,South,178,0.0,0.0,79,0.00,,,0.00,meteohub,2017-12-17 12:32:00,
2017-12-17 07:33:00,37.6,31.6,30.31,SSW,210,0.0,0.0,79,0.00,,,0.00,meteohub,2017-12-17 12:33:00,
2017-12-17 07:36:00,37.6,31.6,30.31,SW,231,0.0,0.0,79,0.00,,,0.00,meteohub,2017-12-17 12:36:00,
2017-12-17 07:41:00,37.6,31.6,30.31,SW,225,0.0,0.0,79,0.00,,,0.00,meteohub,2017-12-17 12:41:00,
2017-12-17 07:43:00,37.4,31.5,30.31,SW,225,0.0,0.0,79,0.00,,,0.00,meteohub,2017-12-17 12:43:00,
2017-12-17 07:44:00,37.4,31.5,30.31,SW,225,0.0,0.0,79,0.00,,,0.00,meteohub,2017-12-17 12:44:00,
2017-12-17 07:49:00,37.2,31.3,30.31,SW,225,0.0,0.0,79,0.00,,,0.00,meteohub,2017-12-17 12:49:00,
2017-12-17 07:54:00,37.0,31.1,30.31,West,278,0.0,0.0,79,0.00,,,0.00,meteohub,2017-12-17 12:54:00,
2017-12-17 07:59:00,36.9,30.9,30.31,NW,323,0.0,0.0,79,0.00,,,0.00,meteohub,2017-12-17 12:59:00,
2017-12-17 08:01:00,36.9,30.9,30.31,NW,323,0.0,0.0,79,0.00,,,0.00,meteohub,2017-12-17 13:01:00,
2017-12-17 08:06:00,36.9,31.3,30.32,NW,323,0.0,0.0,80,0.00,,,0.00,meteohub,2017-12-17 13:06:00,
2017-12-17 08:08:00,36.9,31.3,30.32,NW,323,0.0,0.0,80,0.00,,,0.00,meteohub,2017-12-17 13:08:00,
2017-12-17 08:09:00,36.9,31.3,30.32,NW,323,0.0,0.0,80,0.00,,,0.00,meteohub,2017-12-17 13:09:00,
2017-12-17 08:14:00,36.9,31.3,30.32,NW,323,0.0,0.0,80,0.00,,,0.00,meteohub,2017-12-17 13:14:00,
2017-12-17 08:18:00,36.9,31.3,30.33,NW,323,0.0,0.0,80,0.00,,,0.00,meteohub,2017-12-17 13:18:00,
2017-12-17 08:22:00,37.0,31.5,30.34,SW,214,0.0,0.0,80,0.00,,,0.00,meteohub,2017-12-17 13:22:00,
2017-12-17 08:27:00,37.4,31.8,30.34,South,173,0.0,0.0,80,0.00,,,0.00,meteohub,2017-12-17 13:27:00,
2017-12-17 08:32:00,37.8,31.8,30.34,South,190,0.0,0.0,79,0.00,,,0.00,meteohub,2017-12-17 13:32:00,
2017-12-17 08:33:00,37.9,32.0,30.33,South,170,0.0,0.0,79,0.00,,,0.00,meteohub,2017-12-17 13:33:00,
2017-12-17 08:38:00,38.1,32.2,30.33,SE,141,0.0,0.0,79,0.00,,,0.00,meteohub,2017-12-17 13:38:00,
2017-12-17 08:39:00,38.1,32.2,30.33,South,179,0.0,0.0,79,0.00,,,0.00,meteohub,2017-12-17 13:39:00,
2017-12-17 08:44:00,38.5,32.2,30.32,South,187,0.0,0.0,78,0.00,,,0.00,meteohub,2017-12-17 13:44:00,
2017-12-17 08:48:00,38.5,32.2,30.32,SSE,167,0.0,0.0,78,0.00,,,0.00,meteohub,2017-12-17 13:48:00,
2017-12-17 08:53:00,38.7,32.4,30.32,SSW,194,0.0,0.0,78,0.00,,,0.00,meteohub,2017-12-17 13:53:00,
2017-12-17 08:56:00,38.7,32.4,30.32,SE,146,0.0,0.0,78,0.00,,,0.00,meteohub,2017-12-17 13:56:00,
2017-12-17 08:57:00,38.7,32.4,30.32,SSE,159,0.0,0.0,78,0.00,,,0.00,meteohub,2017-12-17 13:57:00,
2017-12-17 09:01:00,38.7,32.4,30.32,South,176,0.0,0.0,78,0.00,,,0.00,meteohub,2017-12-17 14:01:00,
2017-12-17 09:06:00,38.7,32.4,30.31,SSE,158,0.0,0.0,78,0.00,,,0.00,meteohub,2017-12-17 14:06:00,
2017-12-17 09:08:00,38.7,32.4,30.32,SSE,162,0.0,0.0,78,0.00,,,0.00,meteohub,2017-12-17 14:08:00,
2017-12-17 09:13:00,38.7,32.0,30.32,SSW,203,0.0,0.0,77,0.00,,,0.00,meteohub,2017-12-17 14:13:00,
2017-12-17 09:14:00,38.8,32.2,30.32,SSE,167,0.0,0.0,77,0.00,,,0.00,meteohub,2017-12-17 14:14:00,
2017-12-17 09:19:00,38.8,32.2,30.33,South,184,0.0,0.0,77,0.00,,,0.00,meteohub,2017-12-17 14:19:00,
2017-12-17 09:24:00,39.0,32.4,30.32,SSE,150,0.0,0.0,77,0.00,,,0.00,meteohub,2017-12-17 14:24:00,
2017-12-17 09:25:00,39.0,32.4,30.32,South,176,0.0,0.0,77,0.00,,,0.00,meteohub,2017-12-17 14:25:00,
2017-12-17 09:27:00,39.0,32.4,30.32,SSE,159,0.0,0.0,77,0.00,,,0.00,meteohub,2017-12-17 14:27:00,
2017-12-17 09:31:00,39.0,32.4,30.32,SSE,150,0.0,0.0,77,0.00,,,0.00,meteohub,2017-12-17 14:31:00,
2017-12-17 09:36:00,39.0,32.4,30.32,SSE,166,0.0,0.0,77,0.00,,,0.00,meteohub,2017-12-17 14:36:00,
2017-12-17 09:37:00,39.0,32.4,30.32,SSE,151,0.0,0.0,77,0.00,,,0.00,meteohub,2017-12-17 14:37:00,
2017-12-17 09:42:00,39.2,32.5,30.31,South,180,0.0,0.0,77,0.00,,,0.00,meteohub,2017-12-17 14:42:00,
2017-12-17 09:43:00,39.2,32.5,30.31,South,169,0.0,0.0,77,0.00,,,0.00,meteohub,2017-12-17 14:43:00,
2017-12-17 09:45:00,39.2,32.5,30.31,SE,146,0.0,0.0,77,0.00,,,0.00,meteohub,2017-12-17 14:45:00,
2017-12-17 09:49:00,39.2,32.5,30.31,South,169,0.0,0.0,77,0.00,,,0.00,meteohub,2017-12-17 14:49:00,
2017-12-17 09:54:00,39.4,32.7,30.31,SE,138,0.0,0.0,77,0.00,,,0.00,meteohub,2017-12-17 14:54:00,
2017-12-17 09:56:00,39.4,32.7,30.31,SE,140,0.0,0.0,77,0.00,,,0.00,meteohub,2017-12-17 14:56:00,
2017-12-17 09:58:00,39.4,32.7,30.30,SE,139,0.0,0.0,77,0.00,,,0.00,meteohub,2017-12-17 14:58:00,
2017-12-17 10:02:00,39.6,32.9,30.30,SE,139,0.0,0.0,77,0.00,,,0.00,meteohub,2017-12-17 15:02:00,
2017-12-17 10:07:00,39.6,32.9,30.30,SE,144,0.0,0.0,77,0.00,,,0.00,meteohub,2017-12-17 15:07:00,
2017-12-17 10:08:00,39.6,32.9,30.30,SE,131,0.0,0.0,77,0.00,,,0.00,meteohub,2017-12-17 15:08:00,
2017-12-17 10:13:00,39.7,33.1,30.30,SE,140,0.0,0.0,77,0.00,,,0.00,meteohub,2017-12-17 15:13:00,
2017-12-17 10:14:00,39.9,33.3,30.30,SSW,203,0.0,0.0,77,0.00,,,0.00,meteohub,2017-12-17 15:14:00,
2017-12-17 10:20:00,39.9,33.3,30.29,SSE,151,0.0,0.0,77,0.00,,,0.00,meteohub,2017-12-17 15:20:00,
2017-12-17 10:21:00,39.9,33.3,30.29,SE,140,0.0,0.0,77,0.00,,,0.00,meteohub,2017-12-17 15:21:00,
2017-12-17 10:22:00,39.9,33.3,30.29,SSE,163,0.0,0.0,77,0.00,,,0.00,meteohub,2017-12-17 15:22:00,
2017-12-17 10:27:00,40.3,33.3,30.29,SSE,162,0.0,0.0,76,0.00,,,0.00,meteohub,2017-12-17 15:27:00,
2017-12-17 10:31:00,40.5,33.4,30.29,SE,131,0.0,0.0,76,0.00,,,0.00,meteohub,2017-12-17 15:31:00,
2017-12-17 10:33:00,40.5,33.4,30.28,ESE,111,0.0,0.0,76,0.00,,,0.00,meteohub,2017-12-17 15:33:00,
2017-12-17 10:37:00,40.6,33.6,30.28,SE,133,0.0,0.0,76,0.00,,,0.00,meteohub,2017-12-17 15:37:00,
2017-12-17 10:41:00,40.6,33.3,30.28,SE,139,0.0,0.0,75,0.00,,,0.00,meteohub,2017-12-17 15:41:00,
2017-12-17 10:43:00,40.8,33.8,30.28,SSE,161,0.0,0.0,76,0.00,,,0.00,meteohub,2017-12-17 15:43:00,
2017-12-17 10:48:00,40.8,33.4,30.28,ESE,113,0.0,0.0,75,0.00,,,0.00,meteohub,2017-12-17 15:48:00,
2017-12-17 10:50:00,40.8,33.4,30.28,SSW,204,0.0,0.0,75,0.00,,,0.00,meteohub,2017-12-17 15:50:00,
2017-12-17 10:55:00,41.0,33.6,30.30,ESE,115,0.0,0.0,75,0.00,,,0.00,meteohub,2017-12-17 15:55:00,
2017-12-17 11:00:00,41.2,33.8,30.30,SE,146,0.0,0.0,75,0.00,,,0.00,meteohub,2017-12-17 16:00:00,
2017-12-17 11:05:00,41.2,33.8,30.29,SSE,150,0.0,0.0,75,0.00,,,0.00,meteohub,2017-12-17 16:05:00,
2017-12-17 11:06:00,41.2,33.8,30.29,South,190,0.0,0.0,75,0.00,,,0.00,meteohub,2017-12-17 16:06:00,
2017-12-17 11:11:00,41.2,33.8,30.29,SSW,195,0.0,0.0,75,0.00,,,0.00,meteohub,2017-12-17 16:11:00,
2017-12-17 11:12:00,41.2,33.8,30.29,SSE,149,0.0,0.0,75,0.00,,,0.00,meteohub,2017-12-17 16:12:00,
2017-12-17 11:17:00,41.2,33.8,30.29,South,181,0.0,0.0,75,0.00,,,0.00,meteohub,2017-12-17 16:17:00,
2017-12-17 11:18:00,41.2,33.8,30.29,South,188,0.0,0.0,75,0.00,,,0.00,meteohub,2017-12-17 16:18:00,
2017-12-17 11:19:00,41.2,33.8,30.29,SSW,197,0.0,0.0,75,0.00,,,0.00,meteohub,2017-12-17 16:19:00,
2017-12-17 11:23:00,41.4,34.0,30.30,SSW,198,0.0,0.0,75,0.00,,,0.00,meteohub,2017-12-17 16:23:00,
2017-12-17 11:28:00,41.4,34.0,30.29,SSW,197,0.0,0.0,75,0.00,,,0.00,meteohub,2017-12-17 16:28:00,
2017-12-17 11:30:00,41.4,34.0,30.29,WSW,241,0.0,0.0,75,0.00,,,0.00,meteohub,2017-12-17 16:30:00,
2017-12-17 11:35:00,41.5,34.2,30.28,WSW,252,0.0,0.0,75,0.00,,,0.00,meteohub,2017-12-17 16:35:00,
2017-12-17 11:36:00,41.5,34.2,30.28,WSW,249,0.0,0.0,75,0.00,,,0.00,meteohub,2017-12-17 16:36:00,
2017-12-17 11:38:00,41.5,34.2,30.28,South,174,0.0,0.0,75,0.00,,,0.00,meteohub,2017-12-17 16:38:00,
2017-12-17 11:43:00,41.5,34.2,30.28,SSE,156,0.0,0.0,75,0.00,,,0.00,meteohub,2017-12-17 16:43:00,
2017-12-17 11:44:00,41.5,34.2,30.27,SSE,159,0.0,0.0,75,0.00,,,0.00,meteohub,2017-12-17 16:44:00,
2017-12-17 11:46:00,41.5,34.2,30.27,SW,231,0.0,0.0,75,0.00,,,0.00,meteohub,2017-12-17 16:46:00,
2017-12-17 11:51:00,41.4,34.0,30.26,SE,127,0.0,0.0,75,0.00,,,0.00,meteohub,2017-12-17 16:51:00,
2017-12-17 11:54:00,41.4,34.0,30.26,ESE,102,0.0,0.0,75,0.00,,,0.00,meteohub,2017-12-17 16:54:00,
2017-12-17 11:55:00,41.5,34.2,30.26,ESE,102,0.0,0.0,75,0.00,,,0.00,meteohub,2017-12-17 16:55:00,
2017-12-17 12:00:00,41.5,34.2,30.25,SE,124,0.0,0.0,75,0.00,,,0.00,meteohub,2017-12-17 17:00:00,
2017-12-17 12:02:00,41.5,34.2,30.25,SSE,150,0.0,0.0,75,0.00,,,0.00,meteohub,2017-12-17 17:02:00,
2017-12-17 12:08:00,41.5,34.2,30.25,SE,139,0.0,0.0,75,0.00,,,0.00,meteohub,2017-12-17 17:08:00,
2017-12-17 12:13:00,41.5,34.2,30.25,SE,146,0.0,0.0,75,0.00,,,0.00,meteohub,2017-12-17 17:13:00,
2017-12-17 12:15:00,41.5,34.2,30.25,South,180,0.0,0.0,75,0.00,,,0.00,meteohub,2017-12-17 17:15:00,
2017-12-17 12:20:00,41.5,34.2,30.25,South,186,0.0,0.0,75,0.00,,,0.00,meteohub,2017-12-17 17:20:00,
2017-12-17 12:21:00,41.5,34.2,30.25,SSE,159,0.0,0.0,75,0.00,,,0.00,meteohub,2017-12-17 17:21:00,
2017-12-17 12:26:00,41.5,34.2,30.25,SSE,165,0.0,0.0,75,0.00,,,0.00,meteohub,2017-12-17 17:26:00,
2017-12-17 12:27:00,41.5,34.2,30.25,SSE,156,0.0,0.0,75,0.00,,,0.00,meteohub,2017-12-17 17:27:00,
2017-12-17 12:32:00,41.5,34.2,30.25,SSE,153,0.0,0.0,75,0.00,,,0.00,meteohub,2017-12-17 17:32:00,
2017-12-17 12:33:00,41.5,34.2,30.25,SSE,162,0.0,0.0,75,0.00,,,0.00,meteohub,2017-12-17 17:33:00,
2017-12-17 12:37:00,41.7,34.3,30.25,SSE,156,0.0,0.0,75,0.00,,,0.00,meteohub,2017-12-17 17:37:00,
2017-12-17 12:40:00,41.7,34.3,30.25,South,172,0.0,0.0,75,0.00,,,0.00,meteohub,2017-12-17 17:40:00,
2017-12-17 12:42:00,41.7,34.3,30.26,South,186,0.0,0.0,75,0.00,,,0.00,meteohub,2017-12-17 17:42:00,
2017-12-17 12:48:00,41.9,34.5,30.26,SSW,198,0.0,0.0,75,0.00,,,0.00,meteohub,2017-12-17 17:48:00,
2017-12-17 12:50:00,42.1,34.7,30.25,SSW,204,0.0,0.0,75,0.00,,,0.00,meteohub,2017-12-17 17:50:00,
2017-12-17 12:55:00,42.1,34.7,30.25,South,181,0.0,0.0,75,0.00,,,0.00,meteohub,2017-12-17 17:55:00,
2017-12-17 13:00:00,42.3,34.5,30.25,SSW,194,0.0,0.0,74,0.00,,,0.00,meteohub,2017-12-17 18:00:00,
2017-12-17 13:04:00,42.4,34.7,30.26,SSE,153,0.0,0.0,74,0.00,,,0.00,meteohub,2017-12-17 18:04:00,
2017-12-17 13:09:00,42.4,34.7,30.26,SW,232,0.0,0.0,74,0.00,,,0.00,meteohub,2017-12-17 18:09:00,
2017-12-17 13:11:00,42.6,34.9,30.27,SSW,210,0.0,0.0,74,0.00,,,0.00,meteohub,2017-12-17 18:11:00,
2017-12-17 13:16:00,42.8,35.1,30.27,SSW,207,0.0,0.0,74,0.00,,,0.00,meteohub,2017-12-17 18:16:00,
2017-12-17 13:17:00,42.8,35.1,30.26,SSW,194,0.0,0.0,74,0.00,,,0.00,meteohub,2017-12-17 18:17:00,
2017-12-17 13:22:00,43.0,35.2,30.26,WSW,248,0.0,0.0,74,0.00,,,0.00,meteohub,2017-12-17 18:22:00,
2017-12-17 13:24:00,43.0,34.9,30.26,SSW,201,0.0,0.0,73,0.00,,,0.00,meteohub,2017-12-17 18:24:00,
2017-12-17 13:28:00,43.0,34.9,30.26,WSW,239,0.0,0.0,73,0.00,,,0.00,meteohub,2017-12-17 18:28:00,
2017-12-17 13:30:00,43.0,34.9,30.26,SW,229,0.0,0.0,73,0.00,,,0.00,meteohub,2017-12-17 18:30:00,
2017-12-17 13:35:00,43.0,34.9,30.27,SSW,212,0.0,0.0,73,0.00,,,0.00,meteohub,2017-12-17 18:35:00,
2017-12-17 13:36:00,43.0,34.9,30.27,SW,216,0.0,0.0,73,0.00,,,0.00,meteohub,2017-12-17 18:36:00,
2017-12-17 13:37:00,43.0,34.9,30.27,SSW,210,0.0,0.0,73,0.00,,,0.00,meteohub,2017-12-17 18:37:00,
2017-12-17 13:42:00,43.0,34.9,30.27,SSE,162,0.0,0.0,73,0.00,,,0.00,meteohub,2017-12-17 18:42:00,
2017-12-17 13:43:00,43.0,34.9,30.27,SSW,204,0.0,0.0,73,0.00,,,0.00,meteohub,2017-12-17 18:43:00,
2017-12-17 13:46:00,43.0,34.9,30.27,SSW,210,0.0,0.0,73,0.00,,,0.00,meteohub,2017-12-17 18:46:00,
2017-12-17 13:49:00,43.2,34.7,30.27,SSW,193,0.0,0.0,72,0.00,,,0.00,meteohub,2017-12-17 18:49:00,
2017-12-17 13:54:00,43.2,34.7,30.27,SW,236,0.0,0.0,72,0.00,,,0.00,meteohub,2017-12-17 18:54:00,
2017-12-17 13:55:00,43.2,34.7,30.27,WSW,240,0.0,0.0,72,0.00,,,0.00,meteohub,2017-12-17 18:55:00,
2017-12-17 14:00:00,43.2,35.1,30.26,SSW,204,0.0,0.0,73,0.00,,,0.00,meteohub,2017-12-17 19:00:00,
2017-12-17 14:02:00,43.2,34.7,30.26,SW,236,0.0,0.0,72,0.00,,,0.00,meteohub,2017-12-17 19:02:00,
2017-12-17 14:04:00,43.2,34.7,30.26,SW,229,0.0,0.0,72,0.00,,,0.00,meteohub,2017-12-17 19:04:00,
2017-12-17 14:09:00,43.2,34.7,30.26,WSW,252,0.0,0.0,72,0.00,,,0.00,meteohub,2017-12-17 19:09:00,
2017-12-17 14:10:00,43.3,34.9,30.26,WSW,246,0.0,0.0,72,0.00,,,0.00,meteohub,2017-12-17 19:10:00,
2017-12-17 14:16:00,43.3,34.9,30.25,SW,217,0.0,0.0,72,0.00,,,0.00,meteohub,2017-12-17 19:16:00,
2017-12-17 14:19:00,43.3,34.9,30.25,SW,219,0.0,0.0,72,0.00,,,0.00,meteohub,2017-12-17 19:19:00,
2017-12-17 14:25:00,43.3,34.9,30.24,WSW,252,0.0,0.0,72,0.00,,,0.00,meteohub,2017-12-17 19:25:00,
2017-12-17 14:26:00,43.3,34.9,30.25,WSW,250,0.0,0.0,72,0.00,,,0.00,meteohub,2017-12-17 19:26:00,
2017-12-17 14:31:00,43.3,34.9,30.25,SW,229,0.0,0.0,72,0.00,,,0.00,meteohub,2017-12-17 19:31:00,
2017-12-17 14:34:00,43.3,34.9,30.25,SW,231,0.0,0.0,72,0.00,,,0.00,meteohub,2017-12-17 19:34:00,
2017-12-17 14:39:00,43.3,34.9,30.25,WSW,254,0.0,0.0,72,0.00,,,0.00,meteohub,2017-12-17 19:39:00,
2017-12-17 14:40:00,43.3,34.9,30.25,WSW,248,0.0,0.0,72,0.00,,,0.00,meteohub,2017-12-17 19:40:00,
2017-12-17 14:45:00,43.3,34.9,30.25,WSW,254,0.0,0.0,72,0.00,,,0.00,meteohub,2017-12-17 19:45:00,
2017-12-17 14:49:00,43.3,34.9,30.25,SSW,212,0.0,0.0,72,0.00,,,0.00,meteohub,2017-12-17 19:49:00,
2017-12-17 14:54:00,43.3,34.9,30.25,SSW,210,0.0,0.0,72,0.00,,,0.00,meteohub,2017-12-17 19:54:00,
2017-12-17 14:59:00,43.3,34.9,30.24,SSW,193,0.0,0.0,72,0.00,,,0.00,meteohub,2017-12-17 19:59:00,
2017-12-17 15:01:00,43.3,34.9,30.24,SSW,193,0.0,0.0,72,0.00,,,0.00,meteohub,2017-12-17 20:01:00,
2017-12-17 15:06:00,43.3,34.9,30.24,SW,236,0.0,0.0,72,0.00,,,0.00,meteohub,2017-12-17 20:06:00,
2017-12-17 15:11:00,43.3,34.9,30.24,SSW,207,0.0,0.0,72,0.00,,,0.00,meteohub,2017-12-17 20:11:00,
2017-12-17 15:12:00,43.3,34.9,30.24,WSW,257,0.0,0.0,72,0.00,,,0.00,meteohub,2017-12-17 20:12:00,
2017-12-17 15:14:00,43.3,34.9,30.24,SW,229,0.0,0.0,72,0.00,,,0.00,meteohub,2017-12-17 20:14:00,
2017-12-17 15:19:00,43.5,35.1,30.24,SW,229,0.0,0.0,72,0.00,,,0.00,meteohub,2017-12-17 20:19:00,
2017-12-17 15:24:00,43.7,35.2,30.24,SW,236,0.0,0.0,72,0.00,,,0.00,meteohub,2017-12-17 20:24:00,
2017-12-17 15:27:00,43.7,34.9,30.24,WSW,240,0.0,0.0,71,0.00,,,0.00,meteohub,2017-12-17 20:27:00,
2017-12-17 15:32:00,43.5,35.1,30.24,SSW,207,0.0,0.0,72,0.00,,,0.00,meteohub,2017-12-17 20:32:00,
2017-12-17 15:37:00,43.7,35.2,30.24,SW,217,0.0,0.0,72,0.00,,,0.00,meteohub,2017-12-17 20:37:00,
2017-12-17 15:39:00,43.7,35.2,30.24,SSW,193,0.0,0.0,72,0.00,,,0.00,meteohub,2017-12-17 20:39:00,
2017-12-17 15:40:00,43.7,35.2,30.24,SSW,197,0.0,0.0,72,0.00,,,0.00,meteohub,2017-12-17 20:40:00,
2017-12-17 15:45:00,43.7,35.2,30.24,South,191,0.0,0.0,72,0.00,,,0.00,meteohub,2017-12-17 20:45:00,
2017-12-17 15:50:00,43.9,35.4,30.24,SSE,156,0.0,0.0,72,0.00,,,0.00,meteohub,2017-12-17 20:50:00,
2017-12-17 15:56:00,43.9,35.4,30.24,SSE,150,0.0,0.0,72,0.00,,,0.00,meteohub,2017-12-17 20:56:00,
2017-12-17 15:58:00,43.9,35.4,30.24,SSE,151,0.0,0.0,72,0.00,,,0.00,meteohub,2017-12-17 20:58:00,
2017-12-17 16:01:00,43.9,35.4,30.24,SE,135,0.0,0.0,72,0.00,,,0.00,meteohub,2017-12-17 21:01:00,
2017-12-17 16:05:00,43.9,35.4,30.24,SE,135,0.0,0.0,72,0.00,,,0.00,meteohub,2017-12-17 21:05:00,
2017-12-17 16:07:00,43.9,35.1,30.24,SE,138,0.0,0.0,71,0.00,,,0.00,meteohub,2017-12-17 21:07:00,
2017-12-17 16:10:00,43.9,35.4,30.24,SE,136,0.0,0.0,72,0.00,,,0.00,meteohub,2017-12-17 21:10:00,
2017-12-17 16:13:00,43.9,35.4,30.24,SE,136,0.0,0.0,72,0.00,,,0.00,meteohub,2017-12-17 21:13:00,
2017-12-17 16:16:00,43.9,35.4,30.23,SE,136,0.0,0.0,72,0.00,,,0.00,meteohub,2017-12-17 21:16:00,
2017-12-17 16:21:00,43.9,35.1,30.23,SE,127,0.0,0.0,71,0.00,,,0.00,meteohub,2017-12-17 21:21:00,
2017-12-17 16:22:00,43.9,35.1,30.23,SE,127,0.0,0.0,71,0.00,,,0.00,meteohub,2017-12-17 21:22:00,
2017-12-17 16:25:00,43.9,35.4,30.23,ESE,112,0.0,0.0,72,0.00,,,0.00,meteohub,2017-12-17 21:25:00,
2017-12-17 16:29:00,43.7,35.2,30.23,ESE,108,0.0,0.0,72,0.00,,,0.00,meteohub,2017-12-17 21:29:00,
2017-12-17 16:30:00,43.7,35.2,30.23,ESE,109,0.0,0.0,72,0.00,,,0.00,meteohub,2017-12-17 21:30:00,
2017-12-17 16:35:00,43.5,35.1,30.23,ESE,104,0.0,0.0,72,0.00,,,0.00,meteohub,2017-12-17 21:35:00,
2017-12-17 16:36:00,43.5,35.1,30.23,ESE,104,0.0,0.0,72,0.00,,,0.00,meteohub,2017-12-17 21:36:00,
2017-12-17 16:38:00,43.5,35.1,30.23,ESE,104,0.0,0.0,72,0.00,,,0.00,meteohub,2017-12-17 21:38:00,
2017-12-17 16:42:00,43.5,35.1,30.23,ESE,104,0.0,0.0,72,0.00,,,0.00,meteohub,2017-12-17 21:42:00,
2017-12-17 16:47:00,43.5,35.1,30.23,ESE,107,0.0,0.0,72,0.00,,,0.00,meteohub,2017-12-17 21:47:00,
2017-12-17 16:48:00,43.5,35.1,30.23,ESE,107,0.0,0.0,72,0.00,,,0.00,meteohub,2017-12-17 21:48:00,
2017-12-17 16:53:00,43.5,35.1,30.23,ESE,108,0.0,0.0,72,0.00,,,0.00,meteohub,2017-12-17 21:53:00,
2017-12-17 16:54:00,43.5,35.1,30.23,ESE,108,0.0,0.0,72,0.00,,,0.00,meteohub,2017-12-17 21:54:00,
2017-12-17 17:00:00,43.5,35.1,30.23,SE,132,0.0,0.0,72,0.00,,,0.00,meteohub,2017-12-17 22:00:00,
2017-12-17 17:05:00,43.3,34.9,30.22,ESE,117,0.0,0.0,72,0.00,,,0.00,meteohub,2017-12-17 22:05:00,
2017-12-17 17:10:00,43.2,34.7,30.23,SE,124,0.0,0.0,72,0.00,,,0.00,meteohub,2017-12-17 22:10:00,
2017-12-17 17:15:00,43.2,35.1,30.22,SE,124,0.0,0.0,73,0.00,,,0.00,meteohub,2017-12-17 22:15:00,
2017-12-17 17:20:00,43.0,34.9,30.22,SE,124,0.0,0.0,73,0.00,,,0.00,meteohub,2017-12-17 22:20:00,
2017-12-17 17:25:00,42.8,34.7,30.22,SE,124,0.0,0.0,73,0.00,,,0.00,meteohub,2017-12-17 22:25:00,